Time;durP1;ratioP1;P1;durP2;ratioP2;P2;SDS_P1;SDS_P2;PMS_P1;PMS_P2;Temp;Humidity;BMP_temperature;BMP_pressure;BME280_temperature;BME280_humidity;BME280_pressure;Samples;Min_cycle;Max_cycle;Signal;HPM_P1;HPM_P2
2023/10/28 00:01:40;;;;;;;19.92;10.98;;;8.60;99.90;;;;;;5030246;28;20031;-82
2023/10/28 00:04:06;;;;;;;19.83;11.13;;;8.60;99.90;;;;;;5027025;28;20045;-81
2023/10/28 00:06:31;;;;;;;22.70;11.65;;;8.60;99.90;;;;;;5030052;28;20127;-81
2023/10/28 00:08:57;;;;;;;22.27;10.75;;;8.60;99.90;;;;;;5010780;28;20033;-82
2023/10/28 00:11:22;;;;;;;20.35;11.20;;;8.60;99.90;;;;;;5029585;28;20029;-81
2023/10/28 00:13:48;;;;;;;21.80;12.40;;;8.60;99.90;;;;;;5024915;28;20057;-82
2023/10/28 00:16:15;;;;;;;22.80;12.13;;;8.70;99.90;;;;;;5030065;28;20064;-82
2023/10/28 00:18:40;;;;;;;20.45;11.52;;;8.60;99.90;;;;;;5023843;28;20036;-81
2023/10/28 00:21:09;;;;;;;23.60;13.98;;;8.60;99.90;;;;;;5029970;28;20029;-82
2023/10/28 00:23:35;;;;;;;22.45;11.77;;;8.60;99.90;;;;;;5020928;28;20022;-82
2023/10/28 00:26:05;;;;;;;21.23;11.20;;;8.60;99.90;;;;;;5029033;28;20029;-82
2023/10/28 00:28:34;;;;;;;22.48;11.05;;;8.60;99.90;;;;;;5020383;28;20032;-81
2023/10/28 00:31:01;;;;;;;22.15;11.45;;;8.70;99.90;;;;;;5009815;28;20026;-81
2023/10/28 00:33:26;;;;;;;19.20;11.43;;;8.60;99.90;;;;;;5030207;28;20481;-80
2023/10/28 00:35:52;;;;;;;22.70;11.25;;;8.70;99.90;;;;;;5013798;28;20056;-78
2023/10/28 00:38:18;;;;;;;24.60;12.43;;;8.70;99.90;;;;;;5033367;28;20052;-81
2023/10/28 00:40:44;;;;;;;24.08;12.15;;;8.70;99.90;;;;;;5014216;28;20046;-81
2023/10/28 00:43:10;;;;;;;22.08;10.85;;;8.70;99.90;;;;;;5032653;28;20087;-82
2023/10/28 00:45:38;;;;;;;18.05;9.98;;;8.70;99.90;;;;;;5012739;28;20113;-65
2023/10/28 00:48:04;;;;;;;18.40;10.52;;;8.70;99.90;;;;;;5030692;28;20029;-64
2023/10/28 00:50:30;;;;;;;22.98;11.68;;;8.70;99.90;;;;;;5031853;28;20481;-65
2023/10/28 00:52:57;;;;;;;21.40;12.00;;;8.70;99.90;;;;;;5017287;28;20049;-65
2023/10/28 00:55:23;;;;;;;18.65;10.82;;;8.70;99.90;;;;;;5031425;28;20579;-65
2023/10/28 00:57:49;;;;;;;21.92;11.15;;;8.70;99.90;;;;;;5017965;28;20279;-65
2023/10/28 01:00:15;;;;;;;21.27;11.00;;;8.70;99.90;;;;;;5031629;28;20032;-65
2023/10/28 01:02:42;;;;;;;21.75;10.13;;;8.80;99.90;;;;;;5016706;28;20033;-65
2023/10/28 01:05:11;;;;;;;20.75;11.15;;;8.70;99.90;;;;;;5031330;28;20021;-65
2023/10/28 01:07:38;;;;;;;20.00;10.85;;;8.80;99.90;;;;;;5015734;28;20513;-65
2023/10/28 01:10:05;;;;;;;21.17;11.05;;;8.80;99.90;;;;;;5031500;28;20504;-65
2023/10/28 01:12:31;;;;;;;20.92;10.82;;;8.80;99.90;;;;;;5014831;28;20512;-65
2023/10/28 01:14:57;;;;;;;22.25;10.85;;;8.80;99.90;;;;;;5031152;28;20029;-65
2023/10/28 01:17:25;;;;;;;18.98;10.40;;;8.80;99.90;;;;;;5012819;28;20180;-65
2023/10/28 01:19:52;;;;;;;17.15;9.30;;;8.80;99.90;;;;;;5031144;28;20039;-65
2023/10/28 01:22:18;;;;;;;18.02;9.50;;;8.80;99.90;;;;;;5011159;28;20026;-65
2023/10/28 01:24:44;;;;;;;18.92;10.20;;;8.80;99.90;;;;;;5030953;28;20021;-65
2023/10/28 01:27:09;;;;;;;14.60;9.15;;;8.80;99.90;;;;;;5012413;28;20485;-65
2023/10/28 01:29:35;;;;;;;17.60;8.52;;;8.80;99.90;;;;;;5030891;28;20022;-65
2023/10/28 01:32:03;;;;;;;14.30;8.15;;;8.80;99.90;;;;;;5011357;28;20037;-65
2023/10/28 01:34:29;;;;;;;15.68;8.40;;;8.80;99.90;;;;;;5026069;28;20052;-65
2023/10/28 01:36:56;;;;;;;13.50;8.43;;;8.80;99.90;;;;;;5015918;28;20537;-65
2023/10/28 01:39:21;;;;;;;16.20;9.23;;;8.80;99.90;;;;;;5029748;28;20552;-66
2023/10/28 01:41:47;;;;;;;16.95;8.82;;;8.80;99.90;;;;;;5029413;28;20026;-65
2023/10/28 01:44:14;;;;;;;13.43;7.60;;;8.80;99.90;;;;;;5026560;28;20076;-66
2023/10/28 01:46:40;;;;;;;14.15;8.13;;;8.80;99.90;;;;;;5029922;28;20037;-65
2023/10/28 01:49:06;;;;;;;11.15;6.80;;;8.70;99.90;;;;;;5026447;28;20496;-65
2023/10/28 01:51:31;;;;;;;14.70;7.63;;;8.80;99.90;;;;;;5030334;28;20038;-65
2023/10/28 01:53:57;;;;;;;9.35;6.63;;;8.70;99.90;;;;;;5023511;28;20474;-64
2023/10/28 01:56:22;;;;;;;12.00;7.72;;;8.80;99.90;;;;;;5030272;28;20455;-65
2023/10/28 01:58:48;;;;;;;13.40;8.40;;;8.70;99.90;;;;;;5025186;28;20108;-66
2023/10/28 02:01:14;;;;;;;13.07;7.65;;;8.70;99.90;;;;;;5030101;28;20401;-62
2023/10/28 02:03:39;;;;;;;10.18;6.28;;;8.70;99.90;;;;;;5024081;28;20272;-65
2023/10/28 02:06:06;;;;;;;14.23;8.05;;;8.70;99.90;;;;;;5030330;28;20026;-70
2023/10/28 02:08:32;;;;;;;11.90;7.53;;;8.70;99.90;;;;;;5022523;28;20079;-69
2023/10/28 02:10:57;;;;;;;13.10;8.05;;;8.70;99.90;;;;;;5029971;28;20037;-70
2023/10/28 02:13:23;;;;;;;12.77;7.72;;;8.70;99.90;;;;;;5021383;28;20025;-70
2023/10/28 02:15:49;;;;;;;14.35;7.88;;;8.60;99.90;;;;;;5010651;28;20498;-70
2023/10/28 02:18:18;;;;;;;12.93;7.22;;;8.60;99.90;;;;;;5028979;28;20037;-69
2023/10/28 02:20:44;;;;;;;11.25;7.07;;;8.70;99.90;;;;;;5010412;28;20022;-70
2023/10/28 02:23:13;;;;;;;10.27;6.57;;;8.70;99.90;;;;;;5027304;28;20075;-71
2023/10/28 02:25:41;;;;;;;12.10;7.38;;;8.60;99.90;;;;;;5010013;28;20036;-70
2023/10/28 02:28:08;;;;;;;12.32;7.03;;;8.60;99.90;;;;;;5028942;28;20028;-70
2023/10/28 02:30:39;;;;;;;9.80;5.80;;;8.60;99.90;;;;;;5010412;28;20041;-70
2023/10/28 02:33:06;;;;;;;11.35;6.97;;;8.60;99.90;;;;;;5006905;28;20034;-70
2023/10/28 02:35:31;;;;;;;13.48;7.10;;;8.60;99.90;;;;;;5010304;28;20104;-70
2023/10/28 02:37:57;;;;;;;10.68;6.65;;;8.60;99.90;;;;;;5025677;28;20437;-71
2023/10/28 02:40:22;;;;;;;15.90;8.43;;;8.70;99.90;;;;;;5029816;28;20034;-70
2023/10/28 02:42:48;;;;;;;15.15;8.23;;;8.60;99.90;;;;;;5015899;28;20033;-70
2023/10/28 02:45:14;;;;;;;11.48;7.25;;;8.60;99.90;;;;;;5029483;28;20083;-69
2023/10/28 02:47:40;;;;;;;12.75;7.70;;;8.60;99.90;;;;;;5014735;28;20033;-69
2023/10/28 02:50:06;;;;;;;11.70;6.80;;;8.60;99.90;;;;;;5029752;28;20435;-70
2023/10/28 02:52:32;;;;;;;13.00;7.60;;;8.60;99.90;;;;;;5011879;28;20354;-70
2023/10/28 02:54:57;;;;;;;16.25;9.70;;;8.60;99.90;;;;;;5029553;28;20444;-71
2023/10/28 02:57:23;;;;;;;12.45;8.45;;;8.60;99.90;;;;;;5012012;28;20034;-70
2023/10/28 02:59:48;;;;;;;12.18;7.85;;;8.60;99.90;;;;;;5027991;28;20013;-70
2023/10/28 03:02:14;;;;;;;14.10;9.10;;;8.60;99.90;;;;;;5011021;28;20406;-68
2023/10/28 03:04:39;;;;;;;10.63;7.03;;;8.60;99.90;;;;;;5027814;28;20397;-70
2023/10/28 03:07:05;;;;;;;17.05;9.68;;;8.60;99.90;;;;;;5009775;28;20030;-68
2023/10/28 03:09:30;;;;;;;13.73;8.75;;;8.60;99.90;;;;;;5029075;28;20044;-71
2023/10/28 03:11:56;;;;;;;11.55;7.07;;;8.60;99.90;;;;;;5009711;28;20025;-69
2023/10/28 03:14:22;;;;;;;12.80;6.22;;;8.60;99.90;;;;;;5027998;28;20036;-68
2023/10/28 03:16:47;;;;;;;14.25;8.32;;;8.50;99.90;;;;;;5027771;28;20504;-70
2023/10/28 03:19:13;;;;;;;12.55;7.90;;;8.50;99.90;;;;;;5027097;28;20581;-69
2023/10/28 03:21:39;;;;;;;12.02;7.40;;;8.50;99.90;;;;;;5028460;28;20038;-69
2023/10/28 03:24:05;;;;;;;11.98;6.78;;;8.50;99.90;;;;;;5022923;28;20064;-70
2023/10/28 03:26:32;;;;;;;10.73;6.88;;;8.50;99.90;;;;;;5028652;28;20029;-70
2023/10/28 03:28:59;;;;;;;14.52;8.02;;;8.50;99.90;;;;;;5024613;28;20080;-69
2023/10/28 03:31:26;;;;;;;14.98;8.65;;;8.50;99.90;;;;;;5028450;28;20025;-69
2023/10/28 03:33:51;;;;;;;13.02;7.55;;;8.40;99.90;;;;;;5023974;28;20510;-70
2023/10/28 03:36:17;;;;;;;13.32;7.65;;;8.40;99.90;;;;;;5019485;28;20117;-69
2023/10/28 03:38:42;;;;;;;12.55;7.03;;;8.40;99.90;;;;;;5021874;28;20103;-71
2023/10/28 03:41:09;;;;;;;12.93;8.45;;;8.40;99.90;;;;;;5009744;28;20068;-70
2023/10/28 03:43:35;;;;;;;12.18;6.85;;;8.40;99.90;;;;;;5027540;28;20025;-70
2023/10/28 03:46:00;;;;;;;11.93;6.57;;;8.30;99.90;;;;;;5028195;28;20030;-70
2023/10/28 03:48:26;;;;;;;18.85;7.93;;;8.40;99.90;;;;;;5020253;28;20032;-69
2023/10/28 03:51:05;;;;;;;13.77;7.90;;;8.40;99.90;;;;;;5009166;28;20030;-70
2023/10/28 03:53:31;;;;;;;14.13;8.63;;;8.40;99.90;;;;;;5026126;28;20028;-69
2023/10/28 03:55:56;;;;;;;14.13;8.90;;;8.30;99.90;;;;;;5028087;28;20405;-70
2023/10/28 03:58:22;;;;;;;16.33;9.02;;;8.30;99.90;;;;;;5019202;28;20107;-70
2023/10/28 04:00:53;;;;;;;15.90;9.55;;;8.30;99.90;;;;;;5009282;28;20036;-70
2023/10/28 04:03:20;;;;;;;14.25;9.02;;;8.40;99.90;;;;;;5008990;28;20060;-70
2023/10/28 04:05:45;;;;;;;14.05;7.20;;;8.30;99.90;;;;;;5008664;28;20105;-70
2023/10/28 04:08:11;;;;;;;14.18;7.82;;;8.30;99.90;;;;;;5026317;28;20171;-70
2023/10/28 04:10:36;;;;;;;19.65;9.63;;;8.30;99.90;;;;;;5009107;28;20045;-70
2023/10/28 04:13:02;;;;;;;14.18;8.00;;;8.30;99.90;;;;;;5026998;28;20029;-71
2023/10/28 04:15:27;;;;;;;13.10;7.45;;;8.30;99.90;;;;;;5028002;28;20040;-70
2023/10/28 04:17:53;;;;;;;13.38;7.95;;;8.30;99.90;;;;;;5015446;28;20029;-70
2023/10/28 04:20:18;;;;;;;12.43;7.38;;;8.30;99.90;;;;;;5027947;28;20104;-71
2023/10/28 04:22:44;;;;;;;11.75;7.32;;;8.30;99.90;;;;;;5010818;28;20059;-70
2023/10/28 04:25:09;;;;;;;12.10;7.05;;;8.30;99.90;;;;;;5027149;28;20276;-70
2023/10/28 04:27:35;;;;;;;11.40;6.80;;;8.30;99.90;;;;;;5012456;28;20505;-70
2023/10/28 04:30:03;;;;;;;14.35;7.55;;;8.30;99.90;;;;;;5028143;28;20113;-70
2023/10/28 04:32:29;;;;;;;12.80;7.20;;;8.30;99.90;;;;;;5011642;28;20018;-69
2023/10/28 04:34:55;;;;;;;11.65;7.57;;;8.30;99.90;;;;;;5020219;28;20037;-69
2023/10/28 04:37:20;;;;;;;13.35;7.45;;;8.30;99.90;;;;;;5021267;28;20033;-66
2023/10/28 04:39:45;;;;;;;14.50;7.60;;;8.30;99.90;;;;;;5015992;28;20312;-67
2023/10/28 04:42:11;;;;;;;12.38;7.35;;;8.30;99.90;;;;;;5026689;28;20060;-67
2023/10/28 04:44:37;;;;;;;10.90;6.75;;;8.30;99.90;;;;;;5027741;28;20386;-67
2023/10/28 04:47:02;;;;;;;11.57;6.97;;;8.30;99.90;;;;;;5009076;28;20520;-69
2023/10/28 04:49:31;;;;;;;9.00;5.95;;;8.30;99.90;;;;;;5027451;28;20576;-70
2023/10/28 04:51:56;;;;;;;12.73;7.10;;;8.30;99.90;;;;;;5008683;28;20041;-70
2023/10/28 04:54:22;;;;;;;11.02;7.13;;;8.30;99.90;;;;;;5025253;28;20223;-69
2023/10/28 04:56:49;;;;;;;15.02;8.48;;;8.30;99.90;;;;;;5027848;28;20337;-70
2023/10/28 04:59:15;;;;;;;9.88;5.90;;;8.30;99.90;;;;;;5025740;28;20105;-68
2023/10/28 05:01:41;;;;;;;8.45;5.93;;;8.30;99.90;;;;;;5027472;28;20022;-70
2023/10/28 05:04:09;;;;;;;9.95;5.95;;;8.30;99.90;;;;;;5025010;28;20037;-69
2023/10/28 05:06:35;;;;;;;10.95;7.13;;;8.30;99.90;;;;;;5027718;28;20021;-70
2023/10/28 05:09:01;;;;;;;11.93;6.35;;;8.30;99.90;;;;;;5023978;28;20090;-70
2023/10/28 05:11:26;;;;;;;11.55;6.65;;;8.40;99.90;;;;;;5027568;28;20219;-69
2023/10/28 05:13:52;;;;;;;9.90;6.47;;;8.40;99.90;;;;;;5023002;28;20052;-70
2023/10/28 05:16:19;;;;;;;9.02;6.25;;;8.30;99.90;;;;;;5027305;28;20314;-70
2023/10/28 05:18:45;;;;;;;10.43;6.50;;;8.30;99.90;;;;;;5021833;28;20026;-70
2023/10/28 05:21:11;;;;;;;10.23;6.25;;;8.30;99.90;;;;;;5031129;28;20103;-70
2023/10/28 05:23:37;;;;;;;12.02;6.78;;;8.30;99.90;;;;;;5022263;28;20094;-69
2023/10/28 05:26:04;;;;;;;9.88;6.20;;;8.30;99.90;;;;;;5030797;28;20033;-70
2023/10/28 05:28:30;;;;;;;11.30;7.85;;;8.40;99.90;;;;;;5023072;28;20025;-69
2023/10/28 05:30:55;;;;;;;11.07;6.63;;;8.40;99.90;;;;;;5011550;28;20041;-70
2023/10/28 05:33:21;;;;;;;10.50;6.00;;;8.40;99.90;;;;;;5029620;28;20065;-70
2023/10/28 05:35:48;;;;;;;7.75;5.57;;;8.40;99.90;;;;;;5012511;28;20046;-68
2023/10/28 05:38:14;;;;;;;8.98;6.13;;;8.30;99.90;;;;;;5026314;28;20034;-71
2023/10/28 05:40:40;;;;;;;9.65;6.00;;;8.40;99.90;;;;;;5009993;28;20032;-69
2023/10/28 05:43:05;;;;;;;11.55;6.50;;;8.40;99.90;;;;;;5029953;28;20485;-70
2023/10/28 05:45:31;;;;;;;10.57;6.38;;;8.40;99.90;;;;;;5011288;28;20057;-69
2023/10/28 05:47:56;;;;;;;10.40;6.65;;;8.40;99.90;;;;;;5029511;28;20425;-70
2023/10/28 05:50:22;;;;;;;9.52;5.82;;;8.40;99.90;;;;;;5029403;28;20021;-69
2023/10/28 05:52:47;;;;;;;11.32;7.03;;;8.40;99.90;;;;;;5014970;28;20113;-70
2023/10/28 05:55:13;;;;;;;11.23;6.88;;;8.40;99.90;;;;;;5030269;28;20084;-69
2023/10/28 05:57:39;;;;;;;11.23;7.07;;;8.40;99.90;;;;;;5015379;28;20021;-69
2023/10/28 06:00:10;;;;;;;10.85;6.57;;;8.40;99.90;;;;;;5029030;28;20460;-70
2023/10/28 06:02:39;;;;;;;9.65;6.03;;;8.40;99.90;;;;;;4990790;28;20048;-69
2023/10/28 06:05:05;;;;;;;11.07;6.45;;;8.50;99.90;;;;;;5020936;28;20056;-70
2023/10/28 06:07:30;;;;;;;11.18;6.57;;;8.40;99.90;;;;;;5009450;28;20026;-69
2023/10/28 06:09:56;;;;;;;14.18;7.82;;;8.40;99.90;;;;;;5026995;28;20044;-65
2023/10/28 06:12:22;;;;;;;13.93;7.60;;;8.50;99.90;;;;;;5029707;28;20036;-65
2023/10/28 06:14:47;;;;;;;12.00;7.25;;;8.50;99.90;;;;;;5024591;28;20138;-65
2023/10/28 06:17:15;;;;;;;11.48;7.22;;;8.50;99.90;;;;;;5030043;28;20378;-66
2023/10/28 06:19:41;;;;;;;11.50;7.13;;;8.50;99.90;;;;;;5023046;28;20109;-64
2023/10/28 06:22:07;;;;;;;12.63;6.93;;;8.50;99.90;;;;;;5028272;28;20030;-63
2023/10/28 06:24:33;;;;;;;11.18;6.32;;;8.50;99.90;;;;;;5022375;28;20493;-63
2023/10/28 06:26:59;;;;;;;11.45;6.65;;;8.50;99.90;;;;;;5029491;28;20061;-63
2023/10/28 06:29:25;;;;;;;9.50;5.97;;;8.50;99.90;;;;;;5020622;28;20037;-63
2023/10/28 06:31:51;;;;;;;10.05;6.22;;;8.50;99.90;;;;;;5009899;28;20033;-63
2023/10/28 06:34:17;;;;;;;11.43;6.55;;;8.60;99.90;;;;;;5026865;28;20384;-63
2023/10/28 06:36:42;;;;;;;11.02;6.07;;;8.60;99.90;;;;;;5028162;28;20345;-63
2023/10/28 06:39:08;;;;;;;10.55;6.50;;;8.60;99.90;;;;;;5017381;28;20025;-63
2023/10/28 06:41:34;;;;;;;9.15;6.32;;;8.60;99.90;;;;;;5010120;28;20101;-64
2023/10/28 06:44:05;;;;;;;12.45;6.97;;;8.60;99.90;;;;;;5028311;28;20044;-63
2023/10/28 06:46:34;;;;;;;9.38;6.05;;;8.60;99.90;;;;;;5028090;28;20053;-63
2023/10/28 06:49:01;;;;;;;12.27;7.13;;;8.70;99.90;;;;;;5016853;28;20148;-63
2023/10/28 06:51:26;;;;;;;12.73;7.45;;;8.70;99.90;;;;;;5029813;28;20444;-63
2023/10/28 06:53:52;;;;;;;13.30;7.47;;;8.70;99.90;;;;;;5016139;28;20546;-62
2023/10/28 06:56:17;;;;;;;15.35;7.95;;;8.70;99.90;;;;;;5029269;28;20033;-63
2023/10/28 06:58:43;;;;;;;12.15;7.63;;;8.80;99.90;;;;;;5013419;28;20120;-63
2023/10/28 07:01:09;;;;;;;11.93;6.80;;;8.80;99.90;;;;;;5029469;28;20041;-63
2023/10/28 07:03:37;;;;;;;11.32;7.05;;;8.90;99.90;;;;;;5011995;28;20037;-63
2023/10/28 07:06:04;;;;;;;12.68;7.82;;;8.90;99.90;;;;;;5029476;28;20018;-63
2023/10/28 07:08:29;;;;;;;17.20;8.68;;;8.90;99.90;;;;;;5010911;28;20109;-64
2023/10/28 07:10:55;;;;;;;14.23;8.30;;;8.90;99.90;;;;;;5024958;28;20428;-63
2023/10/28 07:13:21;;;;;;;10.27;6.75;;;8.90;99.90;;;;;;5011356;28;20030;-63
2023/10/28 07:15:46;;;;;;;10.77;6.93;;;8.90;99.90;;;;;;5028010;28;20474;-63
2023/10/28 07:18:13;;;;;;;10.55;6.72;;;8.90;99.90;;;;;;5010369;28;20034;-64
2023/10/28 07:20:40;;;;;;;11.90;7.07;;;9.00;99.90;;;;;;5028853;28;20025;-63
2023/10/28 07:23:06;;;;;;;10.35;6.75;;;9.00;99.90;;;;;;5009446;28;20023;-63
2023/10/28 07:25:31;;;;;;;10.38;6.90;;;8.90;99.90;;;;;;5026814;28;20391;-63
2023/10/28 07:27:57;;;;;;;9.60;6.15;;;8.90;99.90;;;;;;5009621;28;20030;-64
2023/10/28 07:30:22;;;;;;;10.20;6.72;;;8.90;99.90;;;;;;5027924;28;20037;-63
2023/10/28 07:32:48;;;;;;;8.75;6.25;;;8.90;99.90;;;;;;5028602;28;20037;-63
2023/10/28 07:35:16;;;;;;;10.82;6.00;;;8.90;99.90;;;;;;5024654;28;20547;-63
2023/10/28 07:37:42;;;;;;;7.85;5.57;;;8.90;99.90;;;;;;5009107;28;20402;-63
2023/10/28 07:40:11;;;;;;;9.00;6.20;;;9.00;99.90;;;;;;5027804;28;20128;-62
2023/10/28 07:42:36;;;;;;;8.38;5.78;;;9.00;99.90;;;;;;5027703;28;20534;-63
2023/10/28 07:45:02;;;;;;;8.57;6.00;;;9.00;99.90;;;;;;5024891;28;20030;-64
2023/10/28 07:47:28;;;;;;;9.27;6.13;;;9.00;99.90;;;;;;5026962;28;20171;-64
2023/10/28 07:49:53;;;;;;;10.60;5.97;;;9.00;99.90;;;;;;5023595;28;20034;-64
2023/10/28 07:52:19;;;;;;;8.38;5.65;;;9.00;99.90;;;;;;5028309;28;20052;-63
2023/10/28 07:54:44;;;;;;;10.40;7.00;;;9.10;99.90;;;;;;5022560;28;20017;-63
2023/10/28 07:57:09;;;;;;;10.10;6.85;;;9.10;99.90;;;;;;5028060;28;20110;-63
2023/10/28 07:59:36;;;;;;;10.30;6.47;;;9.10;99.90;;;;;;5020984;28;20250;-63
2023/10/28 08:02:01;;;;;;;13.52;7.38;;;9.10;99.90;;;;;;5028353;28;20071;-63
2023/10/28 08:04:27;;;;;;;9.95;5.97;;;9.10;99.90;;;;;;5018230;28;20100;-68
2023/10/28 08:06:52;;;;;;;11.02;7.30;;;9.20;99.90;;;;;;5027950;28;20482;-71
2023/10/28 08:09:18;;;;;;;9.98;6.50;;;9.20;99.90;;;;;;5013767;28;20037;-65
2023/10/28 08:11:44;;;;;;;11.50;6.93;;;9.20;99.90;;;;;;5008872;28;20030;-66
2023/10/28 08:14:09;;;;;;;13.30;7.63;;;9.20;99.90;;;;;;5027327;28;20025;-65
2023/10/28 08:16:35;;;;;;;10.85;7.13;;;9.20;99.90;;;;;;5009132;28;20529;-66
2023/10/28 08:19:01;;;;;;;10.45;5.97;;;9.20;99.90;;;;;;5026994;28;20448;-65
2023/10/28 08:21:27;;;;;;;11.35;7.38;;;9.20;99.90;;;;;;5026846;28;20125;-66
2023/10/28 08:23:52;;;;;;;13.48;7.65;;;9.30;99.90;;;;;;5014685;28;20468;-66
2023/10/28 08:26:18;;;;;;;9.95;6.80;;;9.30;99.90;;;;;;5028077;28;20603;-66
2023/10/28 08:28:46;;;;;;;10.27;6.68;;;9.30;99.90;;;;;;5013881;28;20504;-66
2023/10/28 08:31:12;;;;;;;10.43;6.63;;;9.30;99.90;;;;;;5028363;28;20180;-66
2023/10/28 08:33:41;;;;;;;9.45;6.45;;;9.30;99.90;;;;;;5011002;28;20235;-65
2023/10/28 08:36:07;;;;;;;11.82;7.00;;;9.40;99.90;;;;;;5027867;28;20045;-67
2023/10/28 08:38:33;;;;;;;10.68;6.88;;;9.40;99.90;;;;;;5010523;28;20033;-66
2023/10/28 08:41:01;;;;;;;11.75;7.60;;;9.50;99.90;;;;;;5027954;28;20025;-66
2023/10/28 08:43:27;;;;;;;9.80;6.53;;;9.50;99.90;;;;;;5009408;28;20107;-66
2023/10/28 08:45:54;;;;;;;11.77;6.55;;;9.50;99.90;;;;;;5028200;28;20022;-66
2023/10/28 08:48:21;;;;;;;11.32;7.40;;;9.60;99.90;;;;;;5008609;28;20125;-66
2023/10/28 08:50:54;;;;;;;12.48;8.32;;;9.70;99.90;;;;;;5026395;28;20065;-66
2023/10/28 08:53:21;;;;;;;13.15;8.00;;;9.80;99.90;;;;;;4990606;28;20121;-66
2023/10/28 08:55:49;;;;;;;12.30;8.65;;;9.80;99.90;;;;;;5031090;28;20025;-66
2023/10/28 08:58:18;;;;;;;10.82;7.22;;;9.80;99.90;;;;;;5012674;28;20026;-66
2023/10/28 09:00:47;;;;;;;13.13;8.07;;;9.90;99.90;;;;;;5031440;28;20029;-66
2023/10/28 09:03:15;;;;;;;11.88;7.38;;;9.90;99.90;;;;;;5009198;28;20181;-66
2023/10/28 09:05:41;;;;;;;12.27;8.05;;;9.90;99.90;;;;;;5031329;28;20064;-66
2023/10/28 09:08:06;;;;;;;11.90;7.10;;;10.00;99.90;;;;;;5011987;28;20255;-66
2023/10/28 09:10:34;;;;;;;11.20;7.25;;;10.00;99.90;;;;;;5028636;28;20036;-66
2023/10/28 09:13:06;;;;;;;13.32;9.07;;;10.00;99.90;;;;;;5010359;28;20030;-66
2023/10/28 09:15:32;;;;;;;11.57;8.00;;;10.10;99.90;;;;;;4992092;28;20092;-66
2023/10/28 09:17:57;;;;;;;13.88;8.73;;;10.10;99.90;;;;;;5029797;28;20041;-66
2023/10/28 09:20:24;;;;;;;11.75;8.05;;;10.20;99.90;;;;;;5030218;28;20204;-66
2023/10/28 09:22:49;;;;;;;12.68;7.80;;;10.20;99.90;;;;;;5029472;28;20034;-65
2023/10/28 09:25:15;;;;;;;13.13;8.30;;;10.20;99.90;;;;;;5029310;28;20079;-66
2023/10/28 09:27:41;;;;;;;14.05;8.30;;;10.20;99.90;;;;;;5030813;28;20481;-65
2023/10/28 09:30:11;;;;;;;12.15;8.73;;;10.10;99.90;;;;;;5028012;28;20037;-66
2023/10/28 09:32:38;;;;;;;12.00;8.32;;;10.10;99.90;;;;;;5030819;28;20128;-66
2023/10/28 09:35:05;;;;;;;11.93;8.50;;;10.10;99.90;;;;;;5025222;28;20038;-66
2023/10/28 09:37:35;;;;;;;11.73;8.02;;;10.10;99.90;;;;;;5009924;28;20314;-66
2023/10/28 09:40:02;;;;;;;12.15;8.25;;;10.10;99.90;;;;;;5022586;28;20087;-65
2023/10/28 09:42:31;;;;;;;12.45;7.40;;;10.10;99.90;;;;;;5030372;28;20217;-66
2023/10/28 09:44:58;;;;;;;12.63;8.05;;;10.10;99.90;;;;;;5026284;28;20036;-65
2023/10/28 09:47:46;;;;;;;13.65;8.52;;;10.10;99.90;;;;;;5029356;28;20068;-66
2023/10/28 09:50:14;;;;;;;15.10;9.15;;;10.10;99.90;;;;;;5025355;28;20060;-66
2023/10/28 09:52:48;;;;;;;10.85;7.45;;;10.10;99.90;;;;;;5030610;28;20032;-67
2023/10/28 09:55:15;;;;;;;12.25;8.00;;;10.10;99.90;;;;;;5025591;28;20537;-66
2023/10/28 09:57:42;;;;;;;13.32;8.63;;;10.10;99.90;;;;;;5029157;28;20083;-66
2023/10/28 10:00:18;;;;;;;12.45;8.63;;;10.20;99.90;;;;;;5027589;28;20048;-65
2023/10/28 10:03:25;;;;;;;14.20;9.18;;;10.20;99.90;;;;;;4990995;28;20061;-66
2023/10/28 10:05:53;;;;;;;17.25;9.75;;;10.40;99.90;;;;;;4990119;28;20421;-66
2023/10/28 10:08:23;;;;;;;15.60;9.05;;;10.40;99.90;;;;;;5027849;28;20488;-66
2023/10/28 10:10:52;;;;;;;12.93;8.80;;;10.40;99.90;;;;;;5026321;28;20099;-66
2023/10/28 10:13:18;;;;;;;16.00;10.45;;;10.50;99.90;;;;;;5011726;28;20337;-66
2023/10/28 10:15:53;;;;;;;16.33;9.57;;;10.40;99.90;;;;;;5030550;28;20425;-66
2023/10/28 10:18:32;;;;;;;17.02;10.77;;;10.50;99.90;;;;;;4993917;28;20033;-67
2023/10/28 10:21:11;;;;;;;15.27;10.10;;;10.50;99.90;;;;;;5030098;28;20050;-67
2023/10/28 10:23:50;;;;;;;15.50;10.00;;;10.60;99.90;;;;;;4998310;28;20073;-67
2023/10/28 10:26:27;;;;;;;13.98;9.27;;;10.60;99.90;;;;;;5030244;28;20105;-67
2023/10/28 10:28:55;;;;;;;14.10;9.63;;;10.60;99.90;;;;;;5016357;28;20493;-67
2023/10/28 10:31:32;;;;;;;14.48;9.95;;;10.60;99.90;;;;;;5029719;28;20485;-67
2023/10/28 10:34:02;;;;;;;16.08;9.98;;;10.70;99.90;;;;;;5013821;28;20029;-67
2023/10/28 10:36:35;;;;;;;16.60;10.23;;;10.70;99.90;;;;;;5029641;28;20120;-68
2023/10/28 10:39:14;;;;;;;17.23;10.85;;;10.90;99.90;;;;;;5017158;28;20030;-68
2023/10/28 10:41:40;;;;;;;15.20;9.45;;;11.10;99.90;;;;;;5009822;28;20453;-68
2023/10/28 10:44:28;;;;;;;18.42;10.80;;;11.30;99.90;;;;;;5028771;28;20505;-67
2023/10/28 10:46:56;;;;;;;16.33;10.45;;;11.50;99.90;;;;;;4990566;28;20034;-67
2023/10/28 10:49:21;;;;;;;17.40;9.98;;;11.70;99.90;;;;;;5028588;28;20026;-68
2023/10/28 10:51:47;;;;;;;11.68;8.75;;;12.00;99.90;;;;;;5010108;28;20026;-68
2023/10/28 10:54:16;;;;;;;12.50;8.80;;;12.20;99.90;;;;;;5028324;28;20025;-67
2023/10/28 10:56:42;;;;;;;9.13;7.20;;;12.30;99.90;;;;;;5009853;28;20061;-68
2023/10/28 10:59:07;;;;;;;11.02;7.60;;;12.20;99.90;;;;;;5028205;28;20030;-68
2023/10/28 11:01:33;;;;;;;14.88;8.30;;;12.30;99.90;;;;;;5010201;28;20048;-68
2023/10/28 11:03:58;;;;;;;9.43;7.03;;;12.40;99.90;;;;;;5025063;28;20136;-67
2023/10/28 11:06:24;;;;;;;8.63;6.57;;;12.50;99.90;;;;;;5027778;28;20028;-68
2023/10/28 11:08:50;;;;;;;9.32;6.78;;;12.70;99.90;;;;;;5012899;28;20044;-67
2023/10/28 11:11:15;;;;;;;9.38;6.97;;;12.70;99.90;;;;;;5029299;28;20029;-68
2023/10/28 11:13:43;;;;;;;14.10;8.60;;;12.80;99.90;;;;;;5014416;28;20104;-68
2023/10/28 11:16:21;;;;;;;11.48;8.75;;;12.90;99.90;;;;;;5027855;28;20033;-68
2023/10/28 11:18:47;;;;;;;11.25;7.88;;;13.00;99.90;;;;;;5014282;28;20117;-67
2023/10/28 11:21:12;;;;;;;11.20;7.00;;;13.00;99.90;;;;;;5029355;28;20092;-68
2023/10/28 11:23:38;;;;;;;10.15;6.93;;;13.00;99.90;;;;;;5012167;28;20037;-68
2023/10/28 11:26:04;;;;;;;10.85;7.32;;;13.00;99.90;;;;;;5027391;28;20033;-68
2023/10/28 11:28:34;;;;;;;8.95;7.03;;;13.10;99.90;;;;;;5011162;28;20204;-68
2023/10/28 11:30:59;;;;;;;9.68;6.35;;;13.10;99.90;;;;;;5028754;28;20120;-67
2023/10/28 11:33:26;;;;;;;8.15;5.97;;;13.10;99.90;;;;;;5010114;28;20116;-68
2023/10/28 11:35:52;;;;;;;8.63;6.07;;;13.10;99.90;;;;;;5027603;28;20513;-67
2023/10/28 11:38:17;;;;;;;9.00;7.15;;;13.20;99.90;;;;;;5010647;28;20034;-66
2023/10/28 11:40:43;;;;;;;9.95;6.20;;;13.30;99.90;;;;;;5026518;28;20128;-67
2023/10/28 11:43:09;;;;;;;9.70;6.72;;;13.40;99.90;;;;;;5007785;28;20061;-67
2023/10/28 11:45:35;;;;;;;9.98;7.05;;;13.50;99.90;;;;;;5027648;28;20103;-67
2023/10/28 11:48:00;;;;;;;8.82;6.88;;;13.40;99.90;;;;;;5009102;28;20494;-67
2023/10/28 11:50:26;;;;;;;9.88;5.97;;;13.50;99.90;;;;;;5027171;28;20072;-67
2023/10/28 11:52:51;;;;;;;7.53;5.75;;;13.50;99.90;;;;;;5028380;28;20026;-67
2023/10/28 11:55:17;;;;;;;7.00;5.68;;;13.60;99.90;;;;;;5015889;28;20060;-67
2023/10/28 11:57:42;;;;;;;7.75;5.85;;;13.70;99.90;;;;;;5028399;28;20033;-67
2023/10/28 12:00:11;;;;;;;8.43;6.15;;;13.60;99.90;;;;;;5013002;28;20128;-67
2023/10/28 12:02:36;;;;;;;6.38;5.50;;;13.60;99.90;;;;;;5028049;28;20021;-67
2023/10/28 12:05:03;;;;;;;8.73;6.50;;;13.40;99.90;;;;;;5013339;28;20307;-67
2023/10/28 12:07:28;;;;;;;8.00;5.55;;;13.30;99.90;;;;;;5028495;28;20029;-67
2023/10/28 12:09:54;;;;;;;9.32;6.13;;;13.20;99.90;;;;;;5010623;28;20032;-67
2023/10/28 12:12:19;;;;;;;7.15;5.55;;;13.00;99.90;;;;;;5028242;28;20022;-66
2023/10/28 12:14:45;;;;;;;7.72;5.95;;;12.90;99.90;;;;;;5011053;28;20493;-67
2023/10/28 12:17:10;;;;;;;7.75;6.03;;;12.80;99.90;;;;;;5028585;28;20481;-67
2023/10/28 12:19:36;;;;;;;8.52;5.68;;;12.80;99.90;;;;;;5009817;28;20022;-66
2023/10/28 12:22:02;;;;;;;10.25;6.53;;;12.70;99.90;;;;;;5026642;28;20021;-67
2023/10/28 12:24:27;;;;;;;9.27;6.22;;;12.60;99.90;;;;;;5008728;28;20026;-66
2023/10/28 12:26:53;;;;;;;9.32;6.57;;;12.50;99.90;;;;;;5027786;28;20640;-67
2023/10/28 12:29:18;;;;;;;9.13;6.50;;;12.40;99.90;;;;;;5010131;28;20034;-67
2023/10/28 12:31:44;;;;;;;9.00;6.97;;;12.40;99.90;;;;;;5029812;28;20076;-67
2023/10/28 12:34:10;;;;;;;10.50;7.78;;;12.40;99.90;;;;;;5029781;28;20029;-66
2023/10/28 12:36:36;;;;;;;8.77;6.95;;;12.50;99.90;;;;;;5023123;28;20026;-67
2023/10/28 12:39:02;;;;;;;9.60;6.88;;;12.50;99.90;;;;;;5012464;28;20057;-67
2023/10/28 12:41:27;;;;;;;11.27;7.28;;;12.50;99.90;;;;;;5029396;28;20030;-67
2023/10/28 12:43:53;;;;;;;10.02;8.02;;;12.50;99.90;;;;;;5031486;28;20292;-68